sensor_id;sensor_type;location;lat;lon;timestamp;P1;durP1;ratioP1;P2;durP2;ratioP2
25938;SDS011;13739;51.172;4.466;2022-10-19T00:00:18;10.55;;;4.30;;
25938;SDS011;13739;51.172;4.466;2022-10-19T00:02:43;12.13;;;3.80;;
25938;SDS011;13739;51.172;4.466;2022-10-19T00:05:09;14.88;;;4.00;;
25938;SDS011;13739;51.172;4.466;2022-10-19T00:07:35;17.70;;;3.83;;
25938;SDS011;13739;51.172;4.466;2022-10-19T00:10:01;7.85;;;3.55;;
25938;SDS011;13739;51.172;4.466;2022-10-19T00:12:27;7.35;;;3.35;;
25938;SDS011;13739;51.172;4.466;2022-10-19T00:14:53;10.73;;;4.40;;
25938;SDS011;13739;51.172;4.466;2022-10-19T00:17:18;11.82;;;4.03;;
25938;SDS011;13739;51.172;4.466;2022-10-19T00:19:44;13.63;;;4.40;;
25938;SDS011;13739;51.172;4.466;2022-10-19T00:22:10;18.05;;;4.00;;
25938;SDS011;13739;51.172;4.466;2022-10-19T00:24:35;11.35;;;3.97;;
25938;SDS011;13739;51.172;4.466;2022-10-19T00:27:01;10.95;;;4.38;;
25938;SDS011;13739;51.172;4.466;2022-10-19T00:29:26;11.50;;;4.55;;
25938;SDS011;13739;51.172;4.466;2022-10-19T00:31:52;14.95;;;4.25;;
25938;SDS011;13739;51.172;4.466;2022-10-19T00:34:18;21.90;;;5.28;;
25938;SDS011;13739;51.172;4.466;2022-10-19T00:36:43;15.60;;;4.45;;
25938;SDS011;13739;51.172;4.466;2022-10-19T00:39:10;15.70;;;4.43;;
25938;SDS011;13739;51.172;4.466;2022-10-19T00:41:38;17.63;;;4.82;;
25938;SDS011;13739;51.172;4.466;2022-10-19T00:46:37;14.40;;;4.18;;
25938;SDS011;13739;51.172;4.466;2022-10-19T00:49:09;12.43;;;4.13;;
25938;SDS011;13739;51.172;4.466;2022-10-19T00:51:47;10.15;;;5.10;;
25938;SDS011;13739;51.172;4.466;2022-10-19T00:54:19;14.27;;;4.50;;
25938;SDS011;13739;51.172;4.466;2022-10-19T00:56:46;15.10;;;4.90;;
25938;SDS011;13739;51.172;4.466;2022-10-19T00:59:15;14.32;;;4.43;;
25938;SDS011;13739;51.172;4.466;2022-10-19T01:01:44;11.85;;;4.78;;
25938;SDS011;13739;51.172;4.466;2022-10-19T01:04:11;15.93;;;4.63;;
25938;SDS011;13739;51.172;4.466;2022-10-19T01:06:37;17.00;;;4.13;;
25938;SDS011;13739;51.172;4.466;2022-10-19T01:09:04;15.48;;;4.70;;
25938;SDS011;13739;51.172;4.466;2022-10-19T01:17:05;16.75;;;4.82;;
25938;SDS011;13739;51.172;4.466;2022-10-19T01:22:59;13.15;;;4.78;;
25938;SDS011;13739;51.172;4.466;2022-10-19T01:31:03;14.13;;;4.50;;
25938;SDS011;13739;51.172;4.466;2022-10-19T01:33:38;11.25;;;4.32;;
25938;SDS011;13739;51.172;4.466;2022-10-19T01:36:20;12.15;;;4.45;;
25938;SDS011;13739;51.172;4.466;2022-10-19T01:38:52;17.52;;;5.10;;
25938;SDS011;13739;51.172;4.466;2022-10-19T01:41:42;9.52;;;4.40;;
25938;SDS011;13739;51.172;4.466;2022-10-19T01:44:22;9.43;;;4.55;;
25938;SDS011;13739;51.172;4.466;2022-10-19T01:47:13;14.30;;;5.10;;
25938;SDS011;13739;51.172;4.466;2022-10-19T01:49:53;16.70;;;5.22;;
25938;SDS011;13739;51.172;4.466;2022-10-19T01:52:23;14.15;;;5.20;;
25938;SDS011;13739;51.172;4.466;2022-10-19T01:54:51;15.18;;;4.90;;
25938;SDS011;13739;51.172;4.466;2022-10-19T01:57:25;15.30;;;5.18;;
25938;SDS011;13739;51.172;4.466;2022-10-19T02:00:04;14.07;;;4.68;;
25938;SDS011;13739;51.172;4.466;2022-10-19T02:02:33;14.82;;;5.50;;
25938;SDS011;13739;51.172;4.466;2022-10-19T02:05:02;11.07;;;4.78;;
25938;SDS011;13739;51.172;4.466;2022-10-19T02:07:30;9.48;;;5.18;;
25938;SDS011;13739;51.172;4.466;2022-10-19T02:09:56;11.30;;;4.68;;
25938;SDS011;13739;51.172;4.466;2022-10-19T02:12:22;16.90;;;5.35;;
25938;SDS011;13739;51.172;4.466;2022-10-19T02:14:51;13.35;;;4.60;;
25938;SDS011;13739;51.172;4.466;2022-10-19T02:17:22;13.80;;;5.13;;
25938;SDS011;13739;51.172;4.466;2022-10-19T02:19:58;18.40;;;5.50;;
25938;SDS011;13739;51.172;4.466;2022-10-19T02:22:25;17.33;;;5.43;;
25938;SDS011;13739;51.172;4.466;2022-10-19T02:24:51;23.20;;;6.47;;
25938;SDS011;13739;51.172;4.466;2022-10-19T02:27:17;21.15;;;5.88;;
25938;SDS011;13739;51.172;4.466;2022-10-19T02:29:43;20.08;;;6.03;;
25938;SDS011;13739;51.172;4.466;2022-10-19T02:32:09;16.77;;;5.85;;
25938;SDS011;13739;51.172;4.466;2022-10-19T02:34:35;15.57;;;6.32;;
25938;SDS011;13739;51.172;4.466;2022-10-19T02:37:02;22.45;;;6.82;;
25938;SDS011;13739;51.172;4.466;2022-10-19T02:39:28;19.30;;;6.90;;
25938;SDS011;13739;51.172;4.466;2022-10-19T02:42:03;23.00;;;6.68;;
25938;SDS011;13739;51.172;4.466;2022-10-19T02:44:49;16.08;;;6.43;;
25938;SDS011;13739;51.172;4.466;2022-10-19T02:47:43;12.73;;;6.10;;
25938;SDS011;13739;51.172;4.466;2022-10-19T02:50:29;15.48;;;6.15;;
25938;SDS011;13739;51.172;4.466;2022-10-19T02:52:57;19.35;;;6.25;;
25938;SDS011;13739;51.172;4.466;2022-10-19T02:55:23;16.58;;;5.90;;
25938;SDS011;13739;51.172;4.466;2022-10-19T02:57:48;24.63;;;6.50;;
25938;SDS011;13739;51.172;4.466;2022-10-19T03:00:14;14.68;;;6.22;;
25938;SDS011;13739;51.172;4.466;2022-10-19T03:02:40;19.45;;;6.20;;
25938;SDS011;13739;51.172;4.466;2022-10-19T03:05:05;23.88;;;6.03;;
25938;SDS011;13739;51.172;4.466;2022-10-19T03:07:32;24.77;;;5.85;;
25938;SDS011;13739;51.172;4.466;2022-10-19T03:09:58;16.40;;;5.50;;
25938;SDS011;13739;51.172;4.466;2022-10-19T03:12:23;12.98;;;5.43;;
25938;SDS011;13739;51.172;4.466;2022-10-19T03:14:49;18.40;;;6.10;;
25938;SDS011;13739;51.172;4.466;2022-10-19T03:17:14;15.43;;;5.82;;
25938;SDS011;13739;51.172;4.466;2022-10-19T03:19:40;17.02;;;6.38;;
25938;SDS011;13739;51.172;4.466;2022-10-19T03:22:06;11.75;;;5.07;;
25938;SDS011;13739;51.172;4.466;2022-10-19T03:24:31;14.88;;;5.63;;
25938;SDS011;13739;51.172;4.466;2022-10-19T03:26:57;11.88;;;5.18;;
25938;SDS011;13739;51.172;4.466;2022-10-19T03:29:23;19.48;;;5.63;;
25938;SDS011;13739;51.172;4.466;2022-10-19T03:31:49;16.38;;;5.72;;
25938;SDS011;13739;51.172;4.466;2022-10-19T03:34:14;22.13;;;6.10;;
25938;SDS011;13739;51.172;4.466;2022-10-19T03:36:40;18.98;;;5.45;;
25938;SDS011;13739;51.172;4.466;2022-10-19T03:39:08;12.05;;;5.22;;
25938;SDS011;13739;51.172;4.466;2022-10-19T03:41:36;15.85;;;5.30;;
25938;SDS011;13739;51.172;4.466;2022-10-19T03:44:02;15.23;;;5.60;;
25938;SDS011;13739;51.172;4.466;2022-10-19T03:46:28;14.13;;;5.68;;
25938;SDS011;13739;51.172;4.466;2022-10-19T03:48:54;11.57;;;5.60;;
25938;SDS011;13739;51.172;4.466;2022-10-19T03:51:21;18.40;;;5.57;;
25938;SDS011;13739;51.172;4.466;2022-10-19T03:53:52;18.20;;;6.22;;
25938;SDS011;13739;51.172;4.466;2022-10-19T03:56:29;13.93;;;5.45;;
25938;SDS011;13739;51.172;4.466;2022-10-19T03:58:56;16.00;;;5.10;;
25938;SDS011;13739;51.172;4.466;2022-10-19T04:01:24;15.95;;;5.55;;
25938;SDS011;13739;51.172;4.466;2022-10-19T04:03:55;14.75;;;5.85;;
25938;SDS011;13739;51.172;4.466;2022-10-19T04:06:26;17.95;;;5.88;;
25938;SDS011;13739;51.172;4.466;2022-10-19T04:08:53;15.57;;;6.30;;
25938;SDS011;13739;51.172;4.466;2022-10-19T04:11:20;14.80;;;5.35;;
25938;SDS011;13739;51.172;4.466;2022-10-19T04:13:47;15.75;;;5.72;;
25938;SDS011;13739;51.172;4.466;2022-10-19T04:16:14;18.08;;;6.88;;
25938;SDS011;13739;51.172;4.466;2022-10-19T04:18:40;18.25;;;6.15;;
25938;SDS011;13739;51.172;4.466;2022-10-19T04:21:06;21.63;;;6.60;;
25938;SDS011;13739;51.172;4.466;2022-10-19T04:23:32;22.52;;;6.53;;
25938;SDS011;13739;51.172;4.466;2022-10-19T04:26:03;14.93;;;6.40;;
25938;SDS011;13739;51.172;4.466;2022-10-19T04:28:31;14.93;;;5.88;;
25938;SDS011;13739;51.172;4.466;2022-10-19T04:31:00;14.30;;;6.25;;
25938;SDS011;13739;51.172;4.466;2022-10-19T04:33:27;14.57;;;6.35;;
25938;SDS011;13739;51.172;4.466;2022-10-19T04:36:03;19.00;;;6.13;;
25938;SDS011;13739;51.172;4.466;2022-10-19T04:38:30;16.27;;;6.20;;
25938;SDS011;13739;51.172;4.466;2022-10-19T04:41:00;16.08;;;6.63;;
25938;SDS011;13739;51.172;4.466;2022-10-19T04:43:27;16.05;;;5.43;;
25938;SDS011;13739;51.172;4.466;2022-10-19T04:45:52;12.35;;;5.53;;
25938;SDS011;13739;51.172;4.466;2022-10-19T04:48:18;17.55;;;6.60;;
25938;SDS011;13739;51.172;4.466;2022-10-19T04:50:44;18.65;;;6.38;;
25938;SDS011;13739;51.172;4.466;2022-10-19T04:53:09;23.80;;;6.53;;
25938;SDS011;13739;51.172;4.466;2022-10-19T04:55:39;29.92;;;6.93;;
25938;SDS011;13739;51.172;4.466;2022-10-19T04:58:05;17.70;;;6.68;;
25938;SDS011;13739;51.172;4.466;2022-10-19T05:00:31;22.75;;;6.32;;
25938;SDS011;13739;51.172;4.466;2022-10-19T05:02:57;15.88;;;6.43;;
25938;SDS011;13739;51.172;4.466;2022-10-19T05:05:22;25.42;;;5.88;;
25938;SDS011;13739;51.172;4.466;2022-10-19T05:07:49;16.15;;;5.68;;
25938;SDS011;13739;51.172;4.466;2022-10-19T05:10:15;15.63;;;5.30;;
25938;SDS011;13739;51.172;4.466;2022-10-19T05:12:41;15.45;;;5.68;;
25938;SDS011;13739;51.172;4.466;2022-10-19T05:15:06;20.25;;;6.22;;
25938;SDS011;13739;51.172;4.466;2022-10-19T05:17:32;18.38;;;6.10;;
25938;SDS011;13739;51.172;4.466;2022-10-19T05:19:58;14.05;;;6.03;;
25938;SDS011;13739;51.172;4.466;2022-10-19T05:22:23;15.60;;;6.22;;
25938;SDS011;13739;51.172;4.466;2022-10-19T05:24:49;19.85;;;7.13;;
25938;SDS011;13739;51.172;4.466;2022-10-19T05:27:15;25.65;;;7.70;;
25938;SDS011;13739;51.172;4.466;2022-10-19T05:29:40;20.55;;;7.38;;
25938;SDS011;13739;51.172;4.466;2022-10-19T05:32:06;18.30;;;7.72;;
25938;SDS011;13739;51.172;4.466;2022-10-19T05:34:32;29.60;;;8.73;;
25938;SDS011;13739;51.172;4.466;2022-10-19T05:36:57;23.10;;;7.65;;
25938;SDS011;13739;51.172;4.466;2022-10-19T05:39:23;19.60;;;7.40;;
25938;SDS011;13739;51.172;4.466;2022-10-19T05:41:49;19.08;;;7.13;;
25938;SDS011;13739;51.172;4.466;2022-10-19T05:44:15;20.20;;;8.10;;
25938;SDS011;13739;51.172;4.466;2022-10-19T05:46:43;19.50;;;7.82;;
25938;SDS011;13739;51.172;4.466;2022-10-19T05:49:09;21.77;;;8.60;;
25938;SDS011;13739;51.172;4.466;2022-10-19T05:51:36;27.65;;;8.65;;
25938;SDS011;13739;51.172;4.466;2022-10-19T05:54:02;26.42;;;8.68;;
25938;SDS011;13739;51.172;4.466;2022-10-19T05:56:28;22.67;;;8.65;;
25938;SDS011;13739;51.172;4.466;2022-10-19T05:58:56;19.85;;;8.13;;
25938;SDS011;13739;51.172;4.466;2022-10-19T06:01:23;24.38;;;9.30;;
25938;SDS011;13739;51.172;4.466;2022-10-19T06:03:53;22.05;;;8.82;;
25938;SDS011;13739;51.172;4.466;2022-10-19T06:06:20;24.55;;;9.25;;
25938;SDS011;13739;51.172;4.466;2022-10-19T06:08:46;23.55;;;9.55;;
25938;SDS011;13739;51.172;4.466;2022-10-19T06:11:12;28.27;;;9.38;;
25938;SDS011;13739;51.172;4.466;2022-10-19T06:13:43;28.48;;;9.25;;
25938;SDS011;13739;51.172;4.466;2022-10-19T06:16:11;23.33;;;8.90;;
25938;SDS011;13739;51.172;4.466;2022-10-19T06:18:38;22.63;;;8.25;;
25938;SDS011;13739;51.172;4.466;2022-10-19T06:21:05;18.20;;;8.27;;
25938;SDS011;13739;51.172;4.466;2022-10-19T06:23:32;30.30;;;8.82;;
25938;SDS011;13739;51.172;4.466;2022-10-19T06:26:00;28.70;;;9.27;;
25938;SDS011;13739;51.172;4.466;2022-10-19T06:28:27;24.98;;;9.35;;
25938;SDS011;13739;51.172;4.466;2022-10-19T06:30:53;24.20;;;9.02;;
25938;SDS011;13739;51.172;4.466;2022-10-19T06:33:18;19.52;;;9.00;;
25938;SDS011;13739;51.172;4.466;2022-10-19T06:35:44;21.63;;;9.45;;
25938;SDS011;13739;51.172;4.466;2022-10-19T06:38:10;23.80;;;10.27;;
25938;SDS011;13739;51.172;4.466;2022-10-19T06:40:37;26.98;;;10.65;;
25938;SDS011;13739;51.172;4.466;2022-10-19T06:43:03;32.83;;;9.98;;
25938;SDS011;13739;51.172;4.466;2022-10-19T06:45:29;22.85;;;9.77;;
25938;SDS011;13739;51.172;4.466;2022-10-19T06:47:54;30.42;;;9.85;;
25938;SDS011;13739;51.172;4.466;2022-10-19T06:50:20;21.00;;;9.32;;
25938;SDS011;13739;51.172;4.466;2022-10-19T06:52:46;32.25;;;11.30;;
25938;SDS011;13739;51.172;4.466;2022-10-19T06:55:12;25.52;;;9.88;;
25938;SDS011;13739;51.172;4.466;2022-10-19T06:57:38;27.30;;;10.70;;
25938;SDS011;13739;51.172;4.466;2022-10-19T07:00:04;23.10;;;9.82;;
25938;SDS011;13739;51.172;4.466;2022-10-19T07:02:31;24.23;;;9.63;;
25938;SDS011;13739;51.172;4.466;2022-10-19T07:04:57;32.28;;;11.27;;
25938;SDS011;13739;51.172;4.466;2022-10-19T07:07:22;25.83;;;10.20;;
25938;SDS011;13739;51.172;4.466;2022-10-19T07:09:48;25.67;;;9.63;;
25938;SDS011;13739;51.172;4.466;2022-10-19T07:12:13;19.88;;;9.57;;
25938;SDS011;13739;51.172;4.466;2022-10-19T07:14:39;23.88;;;9.70;;
25938;SDS011;13739;51.172;4.466;2022-10-19T07:17:08;24.67;;;9.05;;
25938;SDS011;13739;51.172;4.466;2022-10-19T07:19:35;23.40;;;9.52;;
25938;SDS011;13739;51.172;4.466;2022-10-19T07:22:01;24.10;;;10.07;;
25938;SDS011;13739;51.172;4.466;2022-10-19T07:24:27;26.10;;;9.20;;
25938;SDS011;13739;51.172;4.466;2022-10-19T07:26:52;20.45;;;8.57;;
25938;SDS011;13739;51.172;4.466;2022-10-19T07:29:18;28.33;;;8.95;;
25938;SDS011;13739;51.172;4.466;2022-10-19T07:31:44;31.15;;;8.35;;
25938;SDS011;13739;51.172;4.466;2022-10-19T07:34:10;20.08;;;8.30;;
25938;SDS011;13739;51.172;4.466;2022-10-19T07:36:37;23.73;;;8.25;;
25938;SDS011;13739;51.172;4.466;2022-10-19T07:39:04;20.73;;;8.05;;
25938;SDS011;13739;51.172;4.466;2022-10-19T07:41:31;20.15;;;8.15;;
25938;SDS011;13739;51.172;4.466;2022-10-19T07:43:59;16.63;;;8.32;;
25938;SDS011;13739;51.172;4.466;2022-10-19T07:46:26;23.00;;;8.05;;
25938;SDS011;13739;51.172;4.466;2022-10-19T07:48:53;21.55;;;7.68;;
25938;SDS011;13739;51.172;4.466;2022-10-19T07:51:19;13.95;;;7.95;;
25938;SDS011;13739;51.172;4.466;2022-10-19T07:53:46;19.33;;;6.88;;
25938;SDS011;13739;51.172;4.466;2022-10-19T07:56:13;20.25;;;6.65;;
25938;SDS011;13739;51.172;4.466;2022-10-19T07:58:41;15.25;;;6.80;;
25938;SDS011;13739;51.172;4.466;2022-10-19T08:01:08;13.02;;;6.13;;
25938;SDS011;13739;51.172;4.466;2022-10-19T08:03:36;24.23;;;7.65;;
25938;SDS011;13739;51.172;4.466;2022-10-19T08:06:03;23.17;;;7.30;;
25938;SDS011;13739;51.172;4.466;2022-10-19T08:08:30;18.75;;;7.38;;
25938;SDS011;13739;51.172;4.466;2022-10-19T08:10:56;17.27;;;6.28;;
25938;SDS011;13739;51.172;4.466;2022-10-19T08:13:22;15.77;;;5.70;;
25938;SDS011;13739;51.172;4.466;2022-10-19T08:15:48;20.58;;;5.80;;
25938;SDS011;13739;51.172;4.466;2022-10-19T08:18:14;11.73;;;5.20;;
25938;SDS011;13739;51.172;4.466;2022-10-19T08:20:41;14.98;;;5.30;;
25938;SDS011;13739;51.172;4.466;2022-10-19T08:23:08;11.60;;;5.53;;
25938;SDS011;13739;51.172;4.466;2022-10-19T08:25:33;17.40;;;5.30;;
25938;SDS011;13739;51.172;4.466;2022-10-19T08:27:59;20.85;;;5.82;;
25938;SDS011;13739;51.172;4.466;2022-10-19T08:30:25;16.42;;;4.80;;
25938;SDS011;13739;51.172;4.466;2022-10-19T08:32:50;12.65;;;5.22;;
25938;SDS011;13739;51.172;4.466;2022-10-19T08:35:17;13.93;;;5.03;;
25938;SDS011;13739;51.172;4.466;2022-10-19T08:37:42;15.77;;;5.38;;
25938;SDS011;13739;51.172;4.466;2022-10-19T08:40:12;18.15;;;5.18;;
25938;SDS011;13739;51.172;4.466;2022-10-19T08:42:49;11.25;;;4.78;;
25938;SDS011;13739;51.172;4.466;2022-10-19T08:48:19;14.40;;;4.38;;
25938;SDS011;13739;51.172;4.466;2022-10-19T08:50:54;13.35;;;4.85;;
25938;SDS011;13739;51.172;4.466;2022-10-19T08:53:34;12.98;;;4.22;;
25938;SDS011;13739;51.172;4.466;2022-10-19T08:56:19;19.85;;;4.70;;
25938;SDS011;13739;51.172;4.466;2022-10-19T09:04:59;13.65;;;4.28;;
25938;SDS011;13739;51.172;4.466;2022-10-19T09:09:47;15.95;;;4.10;;
25938;SDS011;13739;51.172;4.466;2022-10-19T09:15:17;8.70;;;3.70;;
25938;SDS011;13739;51.172;4.466;2022-10-19T09:17:46;8.63;;;3.60;;
25938;SDS011;13739;51.172;4.466;2022-10-19T09:20:18;11.60;;;5.18;;
25938;SDS011;13739;51.172;4.466;2022-10-19T09:23:01;10.50;;;3.83;;
25938;SDS011;13739;51.172;4.466;2022-10-19T09:25:40;12.50;;;3.90;;
25938;SDS011;13739;51.172;4.466;2022-10-19T09:31:13;8.82;;;4.15;;
25938;SDS011;13739;51.172;4.466;2022-10-19T09:33:44;15.10;;;4.40;;
25938;SDS011;13739;51.172;4.466;2022-10-19T09:36:16;8.30;;;3.80;;
25938;SDS011;13739;51.172;4.466;2022-10-19T09:38:41;13.88;;;4.38;;
25938;SDS011;13739;51.172;4.466;2022-10-19T09:41:11;10.80;;;4.25;;
25938;SDS011;13739;51.172;4.466;2022-10-19T09:43:43;13.27;;;3.72;;
25938;SDS011;13739;51.172;4.466;2022-10-19T09:46:24;13.73;;;4.57;;
25938;SDS011;13739;51.172;4.466;2022-10-19T09:48:58;12.75;;;4.20;;
25938;SDS011;13739;51.172;4.466;2022-10-19T09:51:25;16.20;;;4.40;;
25938;SDS011;13739;51.172;4.466;2022-10-19T09:54:02;13.68;;;4.32;;
25938;SDS011;13739;51.172;4.466;2022-10-19T09:56:28;16.33;;;4.50;;
25938;SDS011;13739;51.172;4.466;2022-10-19T09:58:54;11.93;;;4.38;;
25938;SDS011;13739;51.172;4.466;2022-10-19T10:04:08;13.35;;;4.07;;
25938;SDS011;13739;51.172;4.466;2022-10-19T10:06:40;11.10;;;4.03;;
25938;SDS011;13739;51.172;4.466;2022-10-19T10:09:12;17.20;;;4.45;;
25938;SDS011;13739;51.172;4.466;2022-10-19T10:11:41;11.98;;;4.22;;
25938;SDS011;13739;51.172;4.466;2022-10-19T10:14:18;14.25;;;4.45;;
25938;SDS011;13739;51.172;4.466;2022-10-19T10:16:47;10.68;;;3.55;;
25938;SDS011;13739;51.172;4.466;2022-10-19T10:19:18;13.15;;;4.30;;
25938;SDS011;13739;51.172;4.466;2022-10-19T10:24:20;14.23;;;4.22;;
25938;SDS011;13739;51.172;4.466;2022-10-19T10:26:52;13.98;;;4.30;;
25938;SDS011;13739;51.172;4.466;2022-10-19T10:29:20;13.18;;;3.78;;
25938;SDS011;13739;51.172;4.466;2022-10-19T10:31:53;12.55;;;4.25;;
25938;SDS011;13739;51.172;4.466;2022-10-19T10:37:54;14.15;;;4.30;;
25938;SDS011;13739;51.172;4.466;2022-10-19T10:40:05;9.77;;;4.22;;
25938;SDS011;13739;51.172;4.466;2022-10-19T10:42:41;16.15;;;4.60;;
25938;SDS011;13739;51.172;4.466;2022-10-19T10:45:15;13.52;;;4.28;;
25938;SDS011;13739;51.172;4.466;2022-10-19T10:50:16;9.88;;;4.63;;
25938;SDS011;13739;51.172;4.466;2022-10-19T10:52:58;13.63;;;4.80;;
25938;SDS011;13739;51.172;4.466;2022-10-19T10:55:26;14.13;;;4.55;;
25938;SDS011;13739;51.172;4.466;2022-10-19T10:57:57;11.05;;;4.03;;
25938;SDS011;13739;51.172;4.466;2022-10-19T11:01:06;12.75;;;4.10;;
25938;SDS011;13739;51.172;4.466;2022-10-19T11:03:44;14.85;;;4.63;;
25938;SDS011;13739;51.172;4.466;2022-10-19T11:06:15;11.02;;;4.10;;
25938;SDS011;13739;51.172;4.466;2022-10-19T11:09:17;18.50;;;4.57;;
25938;SDS011;13739;51.172;4.466;2022-10-19T11:11:46;13.27;;;4.07;;
25938;SDS011;13739;51.172;4.466;2022-10-19T11:14:59;12.75;;;4.05;;
25938;SDS011;13739;51.172;4.466;2022-10-19T11:17:21;11.63;;;4.38;;
25938;SDS011;13739;51.172;4.466;2022-10-19T11:19:50;10.05;;;3.92;;
25938;SDS011;13739;51.172;4.466;2022-10-19T11:36:21;8.65;;;4.00;;
25938;SDS011;13739;51.172;4.466;2022-10-19T11:44:34;12.73;;;4.20;;
25938;SDS011;13739;51.172;4.466;2022-10-19T11:47:19;9.23;;;3.35;;
25938;SDS011;13739;51.172;4.466;2022-10-19T11:53:01;12.80;;;3.90;;
25938;SDS011;13739;51.172;4.466;2022-10-19T11:55:53;7.90;;;3.45;;
25938;SDS011;13739;51.172;4.466;2022-10-19T11:58:34;11.35;;;4.10;;
25938;SDS011;13739;51.172;4.466;2022-10-19T12:07:02;17.50;;;4.13;;
25938;SDS011;13739;51.172;4.466;2022-10-19T12:12:31;9.82;;;3.95;;
25938;SDS011;13739;51.172;4.466;2022-10-19T12:15:02;10.80;;;4.15;;
25938;SDS011;13739;51.172;4.466;2022-10-19T12:17:30;14.23;;;3.70;;
25938;SDS011;13739;51.172;4.466;2022-10-19T12:20:04;12.13;;;4.22;;
25938;SDS011;13739;51.172;4.466;2022-10-19T12:22:39;13.95;;;4.20;;
25938;SDS011;13739;51.172;4.466;2022-10-19T12:25:06;17.30;;;4.80;;
25938;SDS011;13739;51.172;4.466;2022-10-19T12:27:38;10.98;;;4.10;;
25938;SDS011;13739;51.172;4.466;2022-10-19T12:32:36;11.30;;;3.67;;
25938;SDS011;13739;51.172;4.466;2022-10-19T12:46:42;11.32;;;3.92;;
25938;SDS011;13739;51.172;4.466;2022-10-19T12:51:51;10.00;;;3.70;;
25938;SDS011;13739;51.172;4.466;2022-10-19T12:54:25;8.35;;;3.75;;
25938;SDS011;13739;51.172;4.466;2022-10-19T12:56:53;12.90;;;3.70;;
25938;SDS011;13739;51.172;4.466;2022-10-19T13:02:00;8.85;;;3.38;;
25938;SDS011;13739;51.172;4.466;2022-10-19T13:04:30;10.18;;;4.05;;
25938;SDS011;13739;51.172;4.466;2022-10-19T13:07:02;16.77;;;3.83;;
25938;SDS011;13739;51.172;4.466;2022-10-19T13:09:34;12.93;;;3.60;;
25938;SDS011;13739;51.172;4.466;2022-10-19T13:27:56;11.68;;;4.05;;
25938;SDS011;13739;51.172;4.466;2022-10-19T13:35:46;9.38;;;4.05;;
25938;SDS011;13739;51.172;4.466;2022-10-19T13:43:20;10.07;;;4.40;;
25938;SDS011;13739;51.172;4.466;2022-10-19T13:51:04;18.55;;;4.53;;
25938;SDS011;13739;51.172;4.466;2022-10-19T13:53:52;12.93;;;4.82;;
25938;SDS011;13739;51.172;4.466;2022-10-19T14:12:52;17.67;;;4.82;;
25938;SDS011;13739;51.172;4.466;2022-10-19T14:15:25;12.77;;;4.50;;
25938;SDS011;13739;51.172;4.466;2022-10-19T14:17:53;10.65;;;4.10;;
25938;SDS011;13739;51.172;4.466;2022-10-19T14:20:27;10.07;;;4.10;;
25938;SDS011;13739;51.172;4.466;2022-10-19T14:22:55;12.50;;;4.18;;
25938;SDS011;13739;51.172;4.466;2022-10-19T14:25:25;11.38;;;3.85;;
25938;SDS011;13739;51.172;4.466;2022-10-19T14:28:03;12.45;;;4.00;;
25938;SDS011;13739;51.172;4.466;2022-10-19T14:30:33;10.43;;;3.92;;
25938;SDS011;13739;51.172;4.466;2022-10-19T14:33:05;13.55;;;4.32;;
25938;SDS011;13739;51.172;4.466;2022-10-19T14:35:33;18.73;;;4.88;;
25938;SDS011;13739;51.172;4.466;2022-10-19T14:38:04;12.13;;;4.43;;
25938;SDS011;13739;51.172;4.466;2022-10-19T14:40:33;9.75;;;3.83;;
25938;SDS011;13739;51.172;4.466;2022-10-19T14:43:20;16.38;;;4.18;;
25938;SDS011;13739;51.172;4.466;2022-10-19T14:48:33;11.02;;;3.95;;
25938;SDS011;13739;51.172;4.466;2022-10-19T14:50:59;10.32;;;4.10;;
25938;SDS011;13739;51.172;4.466;2022-10-19T14:53:33;11.98;;;4.63;;
25938;SDS011;13739;51.172;4.466;2022-10-19T14:56:08;7.72;;;3.80;;
25938;SDS011;13739;51.172;4.466;2022-10-19T14:58:51;13.20;;;4.50;;
25938;SDS011;13739;51.172;4.466;2022-10-19T15:01:20;11.48;;;4.50;;
25938;SDS011;13739;51.172;4.466;2022-10-19T15:03:46;7.72;;;4.35;;
25938;SDS011;13739;51.172;4.466;2022-10-19T15:06:16;11.85;;;4.28;;
25938;SDS011;13739;51.172;4.466;2022-10-19T15:08:48;9.32;;;4.10;;
25938;SDS011;13739;51.172;4.466;2022-10-19T15:11:24;11.48;;;4.47;;
25938;SDS011;13739;51.172;4.466;2022-10-19T15:14:05;8.32;;;3.85;;
25938;SDS011;13739;51.172;4.466;2022-10-19T15:16:41;14.02;;;4.68;;
25938;SDS011;13739;51.172;4.466;2022-10-19T15:19:26;13.13;;;4.35;;
25938;SDS011;13739;51.172;4.466;2022-10-19T15:30:05;14.55;;;4.35;;
25938;SDS011;13739;51.172;4.466;2022-10-19T15:33:28;11.13;;;4.13;;
25938;SDS011;13739;51.172;4.466;2022-10-19T15:35:30;9.68;;;4.03;;
25938;SDS011;13739;51.172;4.466;2022-10-19T15:38:06;10.85;;;4.00;;
25938;SDS011;13739;51.172;4.466;2022-10-19T15:40:44;12.10;;;4.22;;
25938;SDS011;13739;51.172;4.466;2022-10-19T15:46:19;13.38;;;4.38;;
25938;SDS011;13739;51.172;4.466;2022-10-19T15:48:47;8.48;;;3.67;;
25938;SDS011;13739;51.172;4.466;2022-10-19T15:53:52;12.68;;;3.78;;
25938;SDS011;13739;51.172;4.466;2022-10-19T15:56:20;11.35;;;4.13;;
25938;SDS011;13739;51.172;4.466;2022-10-19T15:58:47;10.13;;;4.13;;
25938;SDS011;13739;51.172;4.466;2022-10-19T16:01:18;8.82;;;4.15;;
25938;SDS011;13739;51.172;4.466;2022-10-19T16:03:46;9.52;;;4.00;;
25938;SDS011;13739;51.172;4.466;2022-10-19T16:06:13;13.38;;;3.63;;
25938;SDS011;13739;51.172;4.466;2022-10-19T16:08:40;9.93;;;3.63;;
25938;SDS011;13739;51.172;4.466;2022-10-19T16:11:12;17.63;;;4.18;;
25938;SDS011;13739;51.172;4.466;2022-10-19T16:13:42;13.15;;;4.03;;
25938;SDS011;13739;51.172;4.466;2022-10-19T16:16:09;10.57;;;3.65;;
25938;SDS011;13739;51.172;4.466;2022-10-19T16:19:01;9.75;;;4.20;;
25938;SDS011;13739;51.172;4.466;2022-10-19T16:21:32;12.95;;;5.05;;
25938;SDS011;13739;51.172;4.466;2022-10-19T16:23:58;14.45;;;4.57;;
25938;SDS011;13739;51.172;4.466;2022-10-19T16:26:24;8.45;;;3.63;;
25938;SDS011;13739;51.172;4.466;2022-10-19T16:28:51;11.55;;;3.90;;
25938;SDS011;13739;51.172;4.466;2022-10-19T16:31:20;8.50;;;4.45;;
25938;SDS011;13739;51.172;4.466;2022-10-19T16:33:45;11.23;;;4.07;;
25938;SDS011;13739;51.172;4.466;2022-10-19T16:36:11;11.57;;;3.70;;
25938;SDS011;13739;51.172;4.466;2022-10-19T16:38:37;16.48;;;5.93;;
25938;SDS011;13739;51.172;4.466;2022-10-19T16:41:07;14.98;;;5.10;;
25938;SDS011;13739;51.172;4.466;2022-10-19T16:43:34;9.52;;;4.38;;
25938;SDS011;13739;51.172;4.466;2022-10-19T16:46:00;12.80;;;5.60;;
25938;SDS011;13739;51.172;4.466;2022-10-19T16:48:27;11.90;;;4.93;;
25938;SDS011;13739;51.172;4.466;2022-10-19T16:53:30;11.10;;;5.10;;
25938;SDS011;13739;51.172;4.466;2022-10-19T16:56:07;8.85;;;4.07;;
25938;SDS011;13739;51.172;4.466;2022-10-19T16:58:36;15.27;;;6.03;;
25938;SDS011;13739;51.172;4.466;2022-10-19T17:01:06;14.10;;;5.32;;
25938;SDS011;13739;51.172;4.466;2022-10-19T17:03:37;13.23;;;5.55;;
25938;SDS011;13739;51.172;4.466;2022-10-19T17:06:05;9.65;;;4.82;;
25938;SDS011;13739;51.172;4.466;2022-10-19T17:08:32;19.88;;;5.78;;
25938;SDS011;13739;51.172;4.466;2022-10-19T17:11:07;14.25;;;5.03;;
25938;SDS011;13739;51.172;4.466;2022-10-19T17:13:44;12.15;;;5.30;;
25938;SDS011;13739;51.172;4.466;2022-10-19T17:16:11;13.77;;;6.07;;
25938;SDS011;13739;51.172;4.466;2022-10-19T17:18:37;18.50;;;7.13;;
25938;SDS011;13739;51.172;4.466;2022-10-19T17:23:30;15.07;;;5.93;;
25938;SDS011;13739;51.172;4.466;2022-10-19T17:25:56;15.57;;;6.93;;
25938;SDS011;13739;51.172;4.466;2022-10-19T17:28:21;21.13;;;7.85;;
25938;SDS011;13739;51.172;4.466;2022-10-19T17:30:47;20.95;;;7.13;;
25938;SDS011;13739;51.172;4.466;2022-10-19T17:33:14;15.82;;;6.63;;
25938;SDS011;13739;51.172;4.466;2022-10-19T17:35:39;18.95;;;8.15;;